createdAt,value
2018-12-04T00:00:51.665Z,0.48
2018-12-04T00:15:53.479Z,0.35
2018-12-04T00:30:50.383Z,0.42
2018-12-04T00:45:52.337Z,0.26
2018-12-04T01:00:50.772Z,0.22
2018-12-04T01:15:51.674Z,0.47
2018-12-04T01:30:50.639Z,0.45
2018-12-04T01:45:50.465Z,0.49
2018-12-04T02:00:50.848Z,0.68
2018-12-04T02:15:52.805Z,0.66
2018-12-04T02:30:51.713Z,0.85
2018-12-04T02:45:50.703Z,0.86
2018-12-04T03:00:50.968Z,0.91
2018-12-04T03:15:50.954Z,0.96
2018-12-04T03:30:51.415Z,0.89
2018-12-04T03:45:57.615Z,0.92
2018-12-04T04:00:52.998Z,0.99
2018-12-04T04:15:51.111Z,0.97
2018-12-04T04:30:51.425Z,1.00
2018-12-04T04:45:51.469Z,1.22
2018-12-04T05:00:52.323Z,1.32
2018-12-04T05:15:51.279Z,1.27
2018-12-04T05:30:50.745Z,1.34
2018-12-04T05:45:51.461Z,1.53
2018-12-04T06:00:53.232Z,1.51
2018-12-04T06:15:51.393Z,1.52
2018-12-04T06:30:50.718Z,1.54
2018-12-04T06:45:50.723Z,1.77
2018-12-04T07:00:50.198Z,1.92
2018-12-04T07:15:51.983Z,2.06
2018-12-04T07:30:50.899Z,1.63
2018-12-04T07:45:50.770Z,1.62
2018-12-04T08:00:50.996Z,2.04
2018-12-04T08:15:52.683Z,2.63
2018-12-04T08:30:51.025Z,3.04
2018-12-04T08:45:50.889Z,3.36
2018-12-04T09:00:53.289Z,3.57
2018-12-04T09:15:50.775Z,3.65
2018-12-04T09:30:51.223Z,3.30
2018-12-04T09:45:50.594Z,3.58
2018-12-04T10:00:51.097Z,3.84
2018-12-04T10:15:51.017Z,4.27
2018-12-04T10:30:56.502Z,4.64
2018-12-04T10:45:51.266Z,4.86
2018-12-04T11:00:56.663Z,4.77
2018-12-04T11:15:51.077Z,4.96
2018-12-04T11:30:51.931Z,5.20
2018-12-04T11:45:51.771Z,5.34
2018-12-04T12:00:51.491Z,5.39
2018-12-04T12:15:53.023Z,5.32
2018-12-04T12:30:52.582Z,5.08
2018-12-04T12:45:51.415Z,5.11
2018-12-04T13:00:51.488Z,5.11
2018-12-04T13:15:53.607Z,5.07
2018-12-04T13:30:50.801Z,5.08
2018-12-04T13:45:50.681Z,4.67
2018-12-04T14:00:52.625Z,4.74
2018-12-04T14:15:50.530Z,4.33
2018-12-04T14:30:50.896Z,4.46
2018-12-04T14:45:50.866Z,4.56
2018-12-04T15:00:51.409Z,4.60
2018-12-04T15:15:50.696Z,4.51
2018-12-04T15:30:51.114Z,4.37
2018-12-04T16:15:56.508Z,3.69
2018-12-04T16:30:53.823Z,3.85
2018-12-04T16:45:57.324Z,3.98
2018-12-04T17:30:51.518Z,3.91
2018-12-04T17:45:55.025Z,4.04
2018-12-04T18:00:51.389Z,4.15
2018-12-04T18:15:51.793Z,4.18
2018-12-04T18:30:53.311Z,4.20
2018-12-04T19:00:51.878Z,4.33
2018-12-04T19:15:53.641Z,4.36
2018-12-04T19:30:54.010Z,4.39
2018-12-04T20:00:54.526Z,3.95
2018-12-04T20:15:54.015Z,3.87
2018-12-04T20:30:51.174Z,3.75
2018-12-04T20:45:53.186Z,3.99
2018-12-04T21:00:50.882Z,4.12
2018-12-04T21:15:50.871Z,4.12
2018-12-04T21:30:55.877Z,4.14
2018-12-04T21:45:56.386Z,4.21
2018-12-04T22:00:54.221Z,4.35
2018-12-04T22:15:51.086Z,4.41
2018-12-04T22:30:51.394Z,4.44
2018-12-04T22:45:51.368Z,4.49
2018-12-04T23:00:50.891Z,4.48
2018-12-04T23:15:50.764Z,4.49
2018-12-04T23:30:50.588Z,4.49
2018-12-04T23:45:50.579Z,4.53
